createdAt,value
2023-04-02T00:01:27.833Z,5.40
2023-04-02T00:03:59.539Z,4.67
2023-04-02T00:06:02.507Z,4.57
2023-04-02T00:08:10.319Z,5.43
2023-04-02T00:10:27.609Z,4.90
2023-04-02T00:12:30.412Z,5.30
2023-04-02T00:14:35.038Z,5.70
2023-04-02T00:16:37.832Z,5.20
2023-04-02T00:18:44.242Z,5.83
2023-04-02T00:20:48.233Z,5.23
2023-04-02T00:22:51.049Z,4.97
2023-04-02T00:24:54.703Z,5.23
2023-04-02T00:26:57.429Z,4.23
2023-04-02T00:29:00.499Z,4.73
2023-04-02T00:31:03.244Z,5.20
2023-04-02T00:33:06.154Z,5.17
2023-04-02T00:35:12.881Z,4.07
2023-04-02T00:37:18.438Z,4.80
2023-04-02T00:39:23.582Z,4.10
2023-04-02T00:41:29.724Z,4.00
2023-04-02T00:43:34.061Z,4.37
2023-04-02T00:45:38.067Z,3.90
2023-04-02T00:47:40.866Z,3.90
2023-04-02T00:49:43.634Z,3.30
2023-04-02T00:51:50.502Z,4.50
2023-04-02T00:53:54.730Z,4.13
2023-04-02T00:55:57.589Z,4.60
2023-04-02T00:58:00.821Z,4.23
2023-04-02T01:00:12.871Z,3.37
2023-04-02T01:02:26.294Z,3.40
2023-04-02T01:04:34.069Z,4.00
2023-04-02T01:06:37.628Z,4.30
2023-04-02T01:08:57.325Z,3.40
2023-04-02T01:11:02.052Z,3.37
2023-04-02T01:13:09.623Z,3.40
2023-04-02T01:15:14.055Z,4.53
2023-04-02T01:17:28.347Z,3.03
2023-04-02T01:19:52.531Z,3.20
2023-04-02T01:21:57.175Z,3.77
2023-04-02T01:24:05.122Z,3.87
2023-04-02T01:26:11.640Z,3.87
2023-04-02T01:28:19.421Z,3.80
2023-04-02T01:30:23.516Z,3.60
2023-04-02T01:32:27.049Z,3.53
2023-04-02T01:34:29.864Z,4.30
2023-04-02T01:36:36.459Z,3.83
2023-04-02T01:38:40.685Z,3.77
2023-04-02T01:40:46.208Z,4.93
2023-04-02T01:42:52.337Z,3.60
2023-04-02T01:44:55.561Z,3.70
2023-04-02T01:47:03.790Z,3.83
2023-04-02T01:49:12.774Z,3.77
2023-04-02T01:51:26.444Z,3.60
2023-04-02T01:53:29.543Z,3.40
2023-04-02T01:55:35.717Z,2.67
2023-04-02T01:57:38.798Z,3.80
2023-04-02T01:59:41.672Z,2.77
2023-04-02T02:01:46.101Z,2.80
2023-04-02T02:03:50.320Z,3.80
2023-04-02T02:05:53.108Z,3.10
2023-04-02T02:07:56.522Z,3.30
2023-04-02T02:09:59.277Z,3.20
2023-04-02T02:12:02.650Z,3.23
2023-04-02T02:14:07.497Z,3.63
2023-04-02T02:16:12.657Z,2.93
2023-04-02T02:18:15.419Z,3.27
2023-04-02T02:20:19.624Z,3.07
2023-04-02T02:22:25.912Z,2.90
2023-04-02T02:24:31.588Z,3.40
2023-04-02T02:26:35.885Z,2.93
2023-04-02T02:28:39.478Z,2.80
2023-04-02T02:30:44.218Z,2.30
2023-04-02T02:32:53.759Z,2.17
2023-04-02T02:34:59.725Z,3.10
2023-04-02T02:37:06.965Z,3.80
2023-04-02T02:39:14.171Z,2.77
2023-04-02T02:41:19.604Z,2.70
2023-04-02T02:43:22.396Z,3.13
2023-04-02T02:45:26.446Z,2.90
2023-04-02T02:47:29.950Z,2.97
2023-04-02T02:49:33.722Z,3.03
2023-04-02T02:51:41.506Z,2.70
2023-04-02T02:53:50.950Z,2.63
2023-04-02T02:55:55.631Z,2.87
2023-04-02T02:57:59.640Z,3.70
2023-04-02T03:00:02.461Z,2.90
2023-04-02T03:02:05.302Z,2.60
2023-04-02T03:04:08.184Z,2.73
2023-04-02T03:06:12.001Z,2.93
2023-04-02T03:08:16.371Z,3.30
2023-04-02T03:10:22.490Z,2.77
2023-04-02T03:12:34.230Z,2.60
2023-04-02T03:14:39.161Z,3.20
2023-04-02T03:16:42.992Z,2.50
2023-04-02T03:18:52.535Z,4.50
2023-04-02T03:20:56.994Z,2.23
2023-04-02T03:23:01.582Z,3.17
2023-04-02T03:25:06.904Z,3.13
2023-04-02T03:27:14.273Z,2.53
2023-04-02T03:29:18.497Z,2.73
2023-04-02T03:31:24.502Z,2.73
2023-04-02T03:33:28.784Z,2.30
2023-04-02T03:35:35.363Z,2.90
2023-04-02T03:37:41.296Z,2.50
2023-04-02T03:39:44.762Z,2.83
2023-04-02T03:41:49.055Z,2.60
2023-04-02T03:43:54.000Z,2.20
2023-04-02T03:45:58.622Z,2.40
2023-04-02T03:48:04.108Z,2.70
2023-04-02T03:50:08.311Z,2.80
2023-04-02T03:52:11.778Z,2.63
2023-04-02T03:54:16.497Z,2.40
2023-04-02T03:56:24.469Z,2.90
2023-04-02T03:58:29.862Z,2.67
2023-04-02T04:00:36.363Z,2.40
2023-04-02T04:02:42.225Z,2.33
2023-04-02T04:04:44.995Z,2.53
2023-04-02T04:06:49.063Z,2.13
2023-04-02T04:08:54.616Z,1.70
2023-04-02T04:10:58.872Z,2.23
2023-04-02T04:13:04.231Z,2.30
2023-04-02T04:15:08.875Z,2.80
2023-04-02T04:17:15.755Z,2.60
2023-04-02T04:19:21.845Z,2.13
2023-04-02T04:21:31.154Z,3.03
2023-04-02T04:25:40.120Z,2.80
2023-04-02T04:27:44.874Z,2.40
2023-04-02T04:29:50.093Z,2.60
2023-04-02T04:31:55.719Z,2.80
2023-04-02T04:34:04.959Z,2.30
2023-04-02T04:36:08.725Z,2.27
2023-04-02T04:38:14.411Z,2.30
2023-04-02T04:40:19.229Z,2.13
2023-04-02T04:42:23.786Z,2.10
2023-04-02T04:44:29.875Z,2.27
2023-04-02T04:46:35.840Z,2.57
2023-04-02T04:48:40.229Z,2.10
2023-04-02T04:50:48.818Z,2.60
2023-04-02T04:52:51.570Z,2.20
2023-04-02T04:54:54.344Z,2.20
2023-04-02T04:56:58.496Z,2.07
2023-04-02T04:59:03.176Z,2.00
2023-04-02T05:01:08.256Z,2.43
2023-04-02T05:03:17.168Z,2.00
2023-04-02T05:05:21.150Z,2.30
2023-04-02T05:07:28.641Z,2.50
2023-04-02T05:09:34.129Z,2.30
2023-04-02T05:11:38.848Z,2.13
2023-04-02T05:13:43.222Z,2.20
2023-04-02T05:15:49.209Z,2.60
2023-04-02T05:17:54.087Z,3.20
2023-04-02T05:19:58.659Z,2.30
2023-04-02T05:22:03.536Z,2.00
2023-04-02T05:24:45.185Z,2.33
2023-04-02T05:26:49.294Z,2.80
2023-04-02T05:28:54.018Z,2.20
2023-04-02T05:30:57.364Z,2.10
2023-04-02T05:33:01.771Z,2.77
2023-04-02T05:35:06.626Z,3.40
2023-04-02T05:37:14.748Z,3.67
2023-04-02T05:39:17.734Z,2.80
2023-04-02T05:41:26.838Z,2.27
2023-04-02T05:43:32.818Z,2.80
2023-04-02T05:45:37.473Z,2.53
2023-04-02T05:47:42.415Z,3.30
2023-04-02T05:49:47.195Z,2.67
2023-04-02T05:51:51.200Z,3.90
2023-04-02T05:53:54.987Z,4.03
2023-04-02T05:55:59.128Z,4.33
2023-04-02T05:58:25.491Z,2.87
2023-04-02T06:00:42.014Z,2.50
2023-04-02T06:02:51.393Z,2.43
2023-04-02T06:04:55.764Z,2.70
2023-04-02T06:07:00.288Z,2.90
2023-04-02T06:09:05.565Z,2.43
2023-04-02T06:11:10.382Z,3.17
2023-04-02T06:13:13.328Z,3.03
2023-04-02T06:15:16.504Z,2.20
2023-04-02T06:17:21.129Z,2.50
2023-04-02T06:19:25.770Z,2.37
2023-04-02T06:21:28.522Z,2.47
2023-04-02T06:23:33.576Z,2.83
2023-04-02T06:25:37.906Z,2.47
2023-04-02T06:27:41.101Z,2.10
2023-04-02T06:29:44.067Z,2.33
2023-04-02T06:31:49.379Z,2.57
2023-04-02T06:33:55.102Z,2.70
2023-04-02T06:35:57.935Z,2.70
2023-04-02T06:38:01.553Z,2.33
2023-04-02T06:40:05.035Z,2.20
2023-04-02T06:42:10.266Z,2.40
2023-04-02T06:44:14.499Z,2.43
2023-04-02T06:46:20.762Z,2.10
2023-04-02T06:48:23.611Z,2.33
2023-04-02T06:50:28.744Z,2.20
2023-04-02T06:52:35.125Z,2.30
2023-04-02T06:54:37.953Z,2.67
2023-04-02T06:56:43.072Z,2.30
2023-04-02T06:58:45.870Z,2.20
2023-04-02T07:00:49.248Z,2.47
2023-04-02T07:02:52.244Z,2.40
2023-04-02T07:04:57.059Z,2.80
2023-04-02T07:07:01.320Z,2.50
2023-04-02T07:09:04.124Z,1.83
2023-04-02T07:11:06.941Z,2.30
2023-04-02T07:13:11.416Z,1.97
2023-04-02T07:15:16.179Z,2.60
2023-04-02T07:17:19.100Z,2.60
2023-04-02T07:19:22.871Z,2.50
2023-04-02T07:21:25.976Z,2.67
2023-04-02T07:23:30.077Z,2.40
2023-04-02T07:25:33.090Z,2.40
2023-04-02T07:27:36.294Z,2.60
2023-04-02T07:29:42.545Z,3.27
2023-04-02T07:31:45.629Z,3.10
2023-04-02T07:33:48.492Z,2.83
2023-04-02T07:35:51.402Z,2.60
2023-04-02T07:37:54.604Z,2.33
2023-04-02T07:39:58.717Z,3.10
2023-04-02T07:42:02.293Z,2.67
2023-04-02T07:44:05.444Z,4.67
2023-04-02T07:46:08.471Z,5.27
2023-04-02T07:48:12.146Z,3.37
2023-04-02T07:50:14.924Z,2.87
2023-04-02T07:52:17.709Z,3.37
2023-04-02T07:54:20.492Z,3.00
2023-04-02T07:56:25.432Z,2.53
2023-04-02T07:58:28.274Z,2.20
2023-04-02T08:00:31.154Z,2.33
2023-04-02T08:02:34.143Z,2.70
2023-04-02T08:04:37.045Z,2.97
2023-04-02T08:06:39.839Z,2.50
2023-04-02T08:08:42.680Z,2.47
2023-04-02T08:10:45.481Z,2.43
2023-04-02T08:12:50.130Z,2.40
2023-04-02T08:14:53.252Z,2.30
2023-04-02T08:16:56.536Z,2.73
2023-04-02T08:18:59.458Z,2.30
2023-04-02T08:21:02.238Z,2.27
2023-04-02T08:23:06.598Z,2.40
2023-04-02T08:25:10.744Z,2.50
2023-04-02T08:27:14.302Z,2.30
2023-04-02T08:29:18.420Z,2.67
2023-04-02T08:31:21.559Z,2.03
2023-04-02T08:33:24.444Z,3.87
2023-04-02T08:35:27.217Z,6.40
2023-04-02T08:37:30.090Z,3.23
2023-04-02T08:39:34.196Z,2.70
2023-04-02T08:41:38.762Z,2.43
2023-04-02T08:43:57.432Z,3.73
2023-04-02T08:46:06.676Z,2.07
2023-04-02T08:48:10.621Z,2.43
2023-04-02T08:50:16.274Z,2.17
2023-04-02T08:52:22.234Z,2.60
2023-04-02T08:54:27.825Z,2.43
2023-04-02T08:56:33.609Z,2.47
2023-04-02T08:58:41.426Z,2.77
2023-04-02T09:00:44.939Z,2.23
2023-04-02T09:02:52.018Z,2.47
2023-04-02T09:04:55.006Z,2.83
2023-04-02T09:06:57.951Z,1.83
2023-04-02T09:09:01.149Z,2.60
2023-04-02T09:11:07.141Z,2.63
2023-04-02T09:13:17.082Z,2.30
2023-04-02T09:15:24.676Z,2.50
2023-04-02T09:17:27.876Z,2.57
2023-04-02T09:19:35.909Z,2.03
2023-04-02T09:21:41.714Z,2.80
2023-04-02T09:23:44.525Z,2.83
2023-04-02T09:26:02.920Z,2.60
2023-04-02T09:28:07.163Z,3.17
2023-04-02T09:30:14.636Z,2.53
2023-04-02T09:32:40.957Z,3.13
2023-04-02T09:34:45.545Z,2.60
2023-04-02T09:36:48.349Z,2.40
2023-04-02T09:39:02.160Z,2.03
2023-04-02T09:41:05.747Z,2.60
2023-04-02T09:43:12.884Z,2.30
2023-04-02T09:45:19.152Z,3.37
2023-04-02T09:47:25.456Z,6.37
2023-04-02T09:49:29.492Z,3.20
2023-04-02T09:51:35.139Z,5.70
2023-04-02T09:53:39.862Z,5.73
2023-04-02T09:55:43.905Z,3.30
2023-04-02T09:57:47.393Z,3.57
2023-04-02T10:00:06.968Z,2.83
2023-04-02T10:02:24.556Z,3.07
2023-04-02T10:04:35.785Z,2.90
2023-04-02T10:06:40.284Z,3.50
2023-04-02T10:08:43.819Z,2.80
2023-04-02T10:10:48.643Z,3.10
2023-04-02T10:12:56.963Z,2.67
2023-04-02T10:14:59.775Z,2.90
2023-04-02T10:17:05.486Z,2.77
2023-04-02T10:19:14.686Z,4.63
2023-04-02T10:21:19.231Z,2.87
2023-04-02T10:23:24.463Z,3.60
2023-04-02T10:25:28.627Z,2.37
2023-04-02T10:27:33.868Z,2.30
2023-04-02T10:29:55.794Z,2.57
2023-04-02T10:32:00.805Z,2.60
2023-04-02T10:34:05.594Z,2.87
2023-04-02T10:36:10.446Z,2.80
2023-04-02T10:38:44.120Z,3.20
2023-04-02T10:40:48.703Z,2.67
2023-04-02T10:42:54.612Z,2.70
2023-04-02T10:44:59.125Z,2.33
2023-04-02T10:47:08.546Z,2.83
2023-04-02T10:49:16.472Z,3.20
2023-04-02T10:51:26.522Z,4.63
2023-04-02T10:53:33.251Z,4.90
2023-04-02T10:55:40.887Z,3.00
2023-04-02T10:57:44.289Z,2.90
2023-04-02T10:59:48.530Z,2.90
2023-04-02T11:01:51.690Z,2.83
2023-04-02T11:03:58.106Z,2.80
2023-04-02T11:06:01.954Z,3.27
2023-04-02T11:08:07.024Z,2.90
2023-04-02T11:10:13.641Z,2.43
2023-04-02T11:12:21.946Z,2.90
2023-04-02T11:14:25.948Z,2.57
2023-04-02T11:16:28.838Z,2.43
2023-04-02T11:18:35.740Z,3.50
2023-04-02T11:21:00.484Z,10.37
2023-04-02T11:23:10.308Z,4.80
2023-04-02T11:25:21.433Z,2.43
2023-04-02T11:27:27.570Z,1.97
2023-04-02T11:29:30.747Z,2.73
2023-04-02T11:31:33.972Z,2.50
2023-04-02T11:33:44.727Z,3.00
2023-04-02T11:35:48.325Z,3.23
2023-04-02T11:37:51.283Z,3.47
2023-04-02T11:39:59.104Z,3.17
2023-04-02T11:42:03.035Z,3.27
2023-04-02T11:44:16.798Z,3.10
2023-04-02T11:46:52.840Z,3.03
2023-04-02T11:48:55.815Z,5.23
2023-04-02T11:50:58.636Z,2.90
2023-04-02T11:53:02.397Z,5.70
2023-04-02T11:55:24.421Z,2.83
2023-04-02T11:57:45.456Z,3.47
2023-04-02T11:59:53.270Z,2.80
2023-04-02T12:02:01.119Z,3.13
2023-04-02T12:04:12.215Z,2.63
2023-04-02T12:06:20.583Z,2.33
2023-04-02T12:08:27.415Z,2.20
2023-04-02T12:10:34.350Z,2.73
2023-04-02T12:12:38.678Z,2.30
2023-04-02T12:14:45.631Z,1.63
2023-04-02T12:16:49.952Z,2.70
2023-04-02T12:18:54.045Z,2.50
2023-04-02T12:20:57.322Z,2.57
2023-04-02T12:23:00.307Z,2.30
2023-04-02T12:25:05.164Z,2.13
2023-04-02T12:27:08.548Z,2.00
2023-04-02T12:29:33.151Z,2.20
2023-04-02T12:31:36.720Z,2.33
2023-04-02T12:33:40.987Z,2.47
2023-04-02T12:35:44.265Z,1.90
2023-04-02T12:37:49.904Z,2.03
2023-04-02T12:39:54.285Z,2.53
2023-04-02T12:41:57.395Z,2.13
2023-04-02T12:44:00.479Z,2.50
2023-04-02T12:46:04.170Z,2.03
2023-04-02T12:48:07.724Z,1.90
2023-04-02T12:50:14.707Z,2.23
2023-04-02T12:52:18.443Z,1.77
2023-04-02T12:54:21.571Z,2.00
2023-04-02T12:56:24.392Z,2.07
2023-04-02T12:58:29.357Z,2.03
2023-04-02T13:00:34.931Z,2.37
2023-04-02T13:02:44.900Z,1.73
2023-04-02T13:04:48.818Z,1.77
2023-04-02T13:06:54.948Z,1.80
2023-04-02T13:08:57.900Z,2.00
2023-04-02T13:11:01.090Z,2.33
2023-04-02T13:13:04.429Z,1.63
2023-04-02T13:15:08.673Z,1.83
2023-04-02T13:17:39.014Z,2.03
2023-04-02T13:19:42.165Z,1.90
2023-04-02T13:21:45.275Z,2.23
2023-04-02T13:23:49.402Z,2.17
2023-04-02T13:25:52.468Z,2.43
2023-04-02T13:27:56.010Z,2.00
2023-04-02T13:30:08.105Z,1.80
2023-04-02T13:32:12.908Z,2.10
2023-04-02T13:34:15.880Z,2.23
2023-04-02T13:36:18.655Z,3.00
2023-04-02T13:38:21.486Z,1.83
2023-04-02T13:40:25.594Z,2.20
2023-04-02T13:42:28.538Z,2.03
2023-04-02T13:44:31.896Z,1.90
2023-04-02T13:46:35.356Z,2.60
2023-04-02T13:48:38.216Z,3.60
2023-04-02T13:50:41.231Z,2.80
2023-04-02T13:52:44.018Z,3.00
2023-04-02T13:54:48.834Z,2.30
2023-04-02T13:56:53.132Z,2.53
2023-04-02T13:58:55.983Z,1.90
2023-04-02T14:00:58.780Z,2.43
2023-04-02T14:03:03.235Z,2.07
2023-04-02T14:05:11.509Z,2.73
2023-04-02T14:07:25.866Z,1.93
2023-04-02T14:09:30.705Z,1.60
2023-04-02T14:11:41.279Z,1.97
2023-04-02T14:13:54.326Z,1.60
2023-04-02T14:16:06.908Z,2.10
2023-04-02T14:18:21.305Z,1.80
2023-04-02T14:20:31.943Z,1.70
2023-04-02T14:22:41.035Z,2.30
2023-04-02T14:24:46.335Z,1.93
2023-04-02T14:26:55.914Z,2.00
2023-04-02T14:29:01.550Z,1.90
2023-04-02T14:31:08.101Z,2.00
2023-04-02T14:33:14.331Z,1.60
2023-04-02T14:35:19.856Z,1.90
2023-04-02T14:37:26.715Z,1.87
2023-04-02T14:39:35.791Z,2.33
2023-04-02T14:41:40.761Z,1.97
2023-04-02T14:43:46.171Z,2.00
2023-04-02T14:45:59.861Z,1.77
2023-04-02T14:48:04.131Z,1.90
2023-04-02T14:50:10.503Z,1.50
2023-04-02T14:52:14.527Z,1.63
2023-04-02T14:54:21.226Z,1.93
2023-04-02T14:56:24.008Z,1.93
2023-04-02T14:58:27.774Z,2.20
2023-04-02T15:00:33.671Z,1.90
2023-04-02T15:02:41.328Z,1.70
2023-04-02T15:04:57.268Z,1.90
2023-04-02T15:07:02.977Z,2.03
2023-04-02T15:09:09.719Z,1.70
2023-04-02T15:11:15.526Z,1.80
2023-04-02T15:13:20.163Z,1.30
2023-04-02T15:15:38.916Z,2.53
2023-04-02T15:17:44.329Z,2.40
2023-04-02T15:19:47.337Z,2.00
2023-04-02T15:22:09.647Z,1.97
2023-04-02T15:24:16.164Z,2.33
2023-04-02T15:26:21.636Z,2.10
2023-04-02T15:28:27.114Z,1.60
2023-04-02T15:30:31.152Z,1.70
2023-04-02T15:32:37.801Z,2.10
2023-04-02T15:34:44.558Z,1.83
2023-04-02T15:36:53.227Z,2.10
2023-04-02T15:38:59.034Z,1.93
2023-04-02T15:41:02.856Z,1.80
2023-04-02T15:43:07.730Z,2.07
2023-04-02T15:45:18.724Z,2.40
2023-04-02T15:47:23.660Z,2.17
2023-04-02T15:49:41.386Z,2.30
2023-04-02T15:51:55.545Z,2.60
2023-04-02T15:54:01.838Z,2.20
2023-04-02T15:56:09.600Z,2.00
2023-04-02T15:58:21.801Z,2.40
2023-04-02T16:00:27.817Z,2.23
2023-04-02T16:02:40.584Z,2.40
2023-04-02T16:04:49.534Z,2.63
2023-04-02T16:07:01.477Z,3.90
2023-04-02T16:09:15.368Z,2.77
2023-04-02T16:11:18.268Z,2.83
2023-04-02T16:13:25.554Z,2.20
2023-04-02T16:15:29.729Z,2.27
2023-04-02T16:17:35.010Z,2.20
2023-04-02T16:19:41.833Z,2.17
2023-04-02T16:21:46.985Z,2.73
2023-04-02T16:23:51.158Z,2.13
2023-04-02T16:25:57.808Z,2.93
2023-04-02T16:28:05.581Z,2.27
2023-04-02T16:30:44.208Z,2.17
2023-04-02T16:32:57.462Z,2.40
2023-04-02T16:35:19.258Z,2.13
2023-04-02T16:37:27.674Z,2.40
2023-04-02T16:39:38.220Z,2.73
2023-04-02T16:41:48.385Z,2.10
2023-04-02T16:43:55.906Z,2.80
2023-04-02T16:46:01.160Z,3.23
2023-04-02T16:48:09.498Z,2.80
2023-04-02T16:50:16.503Z,3.40
2023-04-02T16:52:29.935Z,3.00
2023-04-02T16:54:35.514Z,3.40
2023-04-02T16:56:55.766Z,3.20
2023-04-02T16:59:03.923Z,3.17
2023-04-02T17:01:11.586Z,2.73
2023-04-02T17:03:20.310Z,2.30
2023-04-02T17:05:30.331Z,2.83
2023-04-02T17:07:35.651Z,1.73
2023-04-02T17:09:40.845Z,1.63
2023-04-02T17:11:48.891Z,3.57
2023-04-02T17:13:53.122Z,2.23
2023-04-02T17:16:01.553Z,2.97
2023-04-02T17:18:11.500Z,3.93
2023-04-02T17:20:16.590Z,2.73
2023-04-02T17:22:21.210Z,2.80
2023-04-02T17:24:25.325Z,2.70
2023-04-02T17:26:29.509Z,2.40
2023-04-02T17:28:36.809Z,2.10
2023-04-02T17:30:41.166Z,2.20
2023-04-02T17:32:44.036Z,2.43
2023-04-02T17:34:46.845Z,2.33
2023-04-02T17:36:53.729Z,2.83
2023-04-02T17:39:00.899Z,4.17
2023-04-02T17:41:06.967Z,4.83
2023-04-02T17:43:13.525Z,3.30
2023-04-02T17:45:19.923Z,3.20
2023-04-02T17:47:23.604Z,2.67
2023-04-02T17:49:29.092Z,3.80
2023-04-02T17:51:34.920Z,3.50
2023-04-02T17:53:44.533Z,2.67
2023-04-02T17:55:51.714Z,2.37
2023-04-02T17:58:01.336Z,2.43
2023-04-02T18:00:12.367Z,3.20
2023-04-02T18:02:31.118Z,2.60
2023-04-02T18:04:38.633Z,3.10
2023-04-02T18:06:44.369Z,2.50
2023-04-02T18:08:52.884Z,2.33
2023-04-02T18:11:01.682Z,2.87
2023-04-02T18:13:08.067Z,3.50
2023-04-02T18:15:20.326Z,3.80
2023-04-02T18:17:28.203Z,3.70
2023-04-02T18:19:34.617Z,3.30
2023-04-02T18:21:40.390Z,3.30
2023-04-02T18:23:49.691Z,6.00
2023-04-02T18:25:54.981Z,6.40
2023-04-02T18:28:04.999Z,5.73
2023-04-02T18:30:12.419Z,6.50
2023-04-02T18:32:29.776Z,7.03
2023-04-02T18:34:45.573Z,5.30
2023-04-02T18:36:53.828Z,2.90
2023-04-02T18:38:59.255Z,4.60
2023-04-02T18:41:12.223Z,5.70
2023-04-02T18:43:22.391Z,4.53
2023-04-02T18:45:28.317Z,5.87
2023-04-02T18:47:36.135Z,4.67
2023-04-02T18:49:39.822Z,4.53
2023-04-02T18:51:42.658Z,3.80
2023-04-02T18:53:45.470Z,5.13
2023-04-02T18:55:51.009Z,4.57
2023-04-02T18:57:56.557Z,6.33
2023-04-02T19:00:01.232Z,5.57
2023-04-02T19:02:11.975Z,5.00
2023-04-02T19:04:18.466Z,5.37
2023-04-02T19:06:22.681Z,5.43
2023-04-02T19:08:28.752Z,4.60
2023-04-02T19:10:32.872Z,7.50
2023-04-02T19:12:35.644Z,8.53
2023-04-02T19:14:38.410Z,7.20
2023-04-02T19:16:57.094Z,4.20
2023-04-02T19:19:03.763Z,18.58
2023-04-02T19:21:15.067Z,11.30
2023-04-02T19:23:26.728Z,6.03
2023-04-02T19:25:38.894Z,3.43
2023-04-02T19:27:51.221Z,4.17
2023-04-02T19:30:00.423Z,4.10
2023-04-02T19:32:06.336Z,5.50
2023-04-02T19:34:13.038Z,4.57
2023-04-02T19:36:28.504Z,4.70
2023-04-02T19:38:42.531Z,3.97
2023-04-02T19:40:46.189Z,3.10
2023-04-02T19:42:49.191Z,3.50
2023-04-02T19:44:52.728Z,3.10
2023-04-02T19:46:55.628Z,3.17
2023-04-02T19:49:03.105Z,2.70
2023-04-02T19:51:05.944Z,3.67
2023-04-02T19:53:10.036Z,3.00
2023-04-02T19:55:12.970Z,3.23
2023-04-02T19:57:16.133Z,3.17
2023-04-02T19:59:19.068Z,3.30
2023-04-02T20:01:22.250Z,3.60
2023-04-02T20:03:25.181Z,3.70
2023-04-02T20:05:27.921Z,3.00
2023-04-02T20:07:31.837Z,2.63
2023-04-02T20:09:36.032Z,2.60
2023-04-02T20:11:39.257Z,2.57
2023-04-02T20:13:42.001Z,4.83
2023-04-02T20:15:44.747Z,3.00
2023-04-02T20:17:47.550Z,2.23
2023-04-02T20:19:50.442Z,3.03
2023-04-02T20:21:53.180Z,2.93
2023-04-02T20:23:56.172Z,3.50
2023-04-02T20:26:00.533Z,3.83
2023-04-02T20:28:04.019Z,2.43
2023-04-02T20:30:07.904Z,2.17
2023-04-02T20:32:10.861Z,2.83
2023-04-02T20:34:13.704Z,2.70
2023-04-02T20:36:17.442Z,2.30
2023-04-02T20:38:20.282Z,2.43
2023-04-02T20:40:23.048Z,2.80
2023-04-02T20:42:27.222Z,2.80
2023-04-02T20:44:30.076Z,2.90
2023-04-02T20:46:32.830Z,2.00
2023-04-02T20:48:36.290Z,2.90
2023-04-02T20:50:39.090Z,2.60
2023-04-02T20:52:41.993Z,2.97
2023-04-02T20:54:44.741Z,2.97
2023-04-02T20:56:47.498Z,2.80
2023-04-02T20:58:51.681Z,3.27
2023-04-02T21:00:54.432Z,2.50
2023-04-02T21:02:57.707Z,2.80
2023-04-02T21:05:00.574Z,2.53
2023-04-02T21:07:03.429Z,2.43
2023-04-02T21:09:08.435Z,2.33
2023-04-02T21:11:12.078Z,2.83
2023-04-02T21:13:14.839Z,2.47
2023-04-02T21:15:19.069Z,2.80
2023-04-02T21:17:21.930Z,2.70
2023-04-02T21:19:24.714Z,2.47
2023-04-02T21:21:27.811Z,2.73
2023-04-02T21:23:30.806Z,2.25
2023-04-02T21:25:33.621Z,2.60
2023-04-02T21:27:36.427Z,2.83
2023-04-02T21:29:39.185Z,3.03
2023-04-02T21:31:43.490Z,2.97
2023-04-02T21:33:47.138Z,2.50
2023-04-02T21:35:50.570Z,2.00
2023-04-02T21:37:53.361Z,2.30
2023-04-02T21:39:56.162Z,2.50
2023-04-02T21:41:58.974Z,2.53
2023-04-02T21:44:03.079Z,2.27
2023-04-02T21:46:05.934Z,2.60
2023-04-02T21:48:10.041Z,2.37
2023-04-02T21:50:13.171Z,1.93
2023-04-02T21:52:16.100Z,2.50
2023-04-02T21:54:18.990Z,2.40
2023-04-02T21:56:22.711Z,2.20
2023-04-02T21:58:25.482Z,2.47
2023-04-02T22:00:28.273Z,1.97
2023-04-02T22:02:31.077Z,2.70
2023-04-02T22:04:35.274Z,3.00
2023-04-02T22:06:38.954Z,2.60
2023-04-02T22:08:42.425Z,3.00
2023-04-02T22:10:45.295Z,2.87
2023-04-02T22:12:48.078Z,2.90
2023-04-02T22:14:51.698Z,2.53
2023-04-02T22:16:54.593Z,3.17
2023-04-02T22:19:00.761Z,2.40
2023-04-02T22:21:04.980Z,2.60
2023-04-02T22:23:07.738Z,2.90
2023-04-02T22:25:10.945Z,2.57
2023-04-02T22:27:13.715Z,2.40
2023-04-02T22:29:16.805Z,2.20
2023-04-02T22:31:20.550Z,2.80
2023-04-02T22:33:23.340Z,2.87
2023-04-02T22:35:26.579Z,2.63
2023-04-02T22:37:33.865Z,2.47
2023-04-02T22:39:36.682Z,2.57
2023-04-02T22:41:39.490Z,2.30
2023-04-02T22:43:43.779Z,2.53
2023-04-02T22:45:46.611Z,2.33
2023-04-02T22:47:49.479Z,2.50
2023-04-02T22:49:52.260Z,2.20
2023-04-02T22:51:55.033Z,2.33
2023-04-02T22:53:59.132Z,2.70
2023-04-02T22:56:03.213Z,2.60
2023-04-02T22:58:05.994Z,2.13
2023-04-02T23:00:11.306Z,3.20
2023-04-02T23:02:14.143Z,3.13
2023-04-02T23:04:17.387Z,3.50
2023-04-02T23:06:20.336Z,2.50
2023-04-02T23:08:23.093Z,2.87
2023-04-02T23:10:28.867Z,3.90
2023-04-02T23:12:33.667Z,3.50
2023-04-02T23:14:36.417Z,3.43
2023-04-02T23:16:39.211Z,3.60
2023-04-02T23:18:42.787Z,3.30
2023-04-02T23:20:45.712Z,3.60
2023-04-02T23:22:48.503Z,3.60
2023-04-02T23:24:54.439Z,3.00
2023-04-02T23:26:58.569Z,2.53
2023-04-02T23:29:01.911Z,2.77
2023-04-02T23:31:05.234Z,2.80
2023-04-02T23:33:08.197Z,2.53
2023-04-02T23:35:11.134Z,3.43
2023-04-02T23:37:13.919Z,3.07
2023-04-02T23:39:16.956Z,2.77
2023-04-02T23:41:19.726Z,2.90
2023-04-02T23:43:23.857Z,2.60
2023-04-02T23:45:26.633Z,2.83
2023-04-02T23:47:29.482Z,2.40
2023-04-02T23:49:32.274Z,2.50
2023-04-02T23:51:35.064Z,3.30
2023-04-02T23:53:37.908Z,3.37
2023-04-02T23:55:40.735Z,2.10
2023-04-02T23:57:43.526Z,2.50
2023-04-02T23:59:47.617Z,2.60
